sensor_id;sensor_type;location;lat;lon;timestamp;P1;durP1;ratioP1;P2;durP2;ratioP2
2972;SDS011;1496;51.404;7.232;2024-01-15T00:01:56;38.90;;;18.70;;
2972;SDS011;1496;51.404;7.232;2024-01-15T00:04:22;35.30;;;17.83;;
2972;SDS011;1496;51.404;7.232;2024-01-15T00:06:49;39.30;;;18.10;;
2972;SDS011;1496;51.404;7.232;2024-01-15T00:09:14;41.17;;;19.50;;
2972;SDS011;1496;51.404;7.232;2024-01-15T00:11:41;47.50;;;20.40;;
2972;SDS011;1496;51.404;7.232;2024-01-15T00:14:08;43.77;;;20.17;;
2972;SDS011;1496;51.404;7.232;2024-01-15T00:16:34;36.50;;;19.73;;
2972;SDS011;1496;51.404;7.232;2024-01-15T00:18:59;39.37;;;18.90;;
2972;SDS011;1496;51.404;7.232;2024-01-15T00:21:25;36.67;;;20.07;;
2972;SDS011;1496;51.404;7.232;2024-01-15T00:23:51;44.00;;;21.23;;
2972;SDS011;1496;51.404;7.232;2024-01-15T00:26:16;36.60;;;20.03;;
2972;SDS011;1496;51.404;7.232;2024-01-15T00:28:42;42.13;;;18.97;;
2972;SDS011;1496;51.404;7.232;2024-01-15T00:31:08;40.77;;;20.10;;
2972;SDS011;1496;51.404;7.232;2024-01-15T00:33:34;51.57;;;22.90;;
2972;SDS011;1496;51.404;7.232;2024-01-15T00:36:00;52.47;;;21.00;;
2972;SDS011;1496;51.404;7.232;2024-01-15T00:38:25;39.70;;;20.57;;
2972;SDS011;1496;51.404;7.232;2024-01-15T00:40:51;39.03;;;22.07;;
2972;SDS011;1496;51.404;7.232;2024-01-15T00:43:17;46.63;;;20.07;;
2972;SDS011;1496;51.404;7.232;2024-01-15T00:45:44;39.10;;;20.30;;
2972;SDS011;1496;51.404;7.232;2024-01-15T00:48:09;42.23;;;21.50;;
2972;SDS011;1496;51.404;7.232;2024-01-15T00:50:35;40.30;;;19.10;;
2972;SDS011;1496;51.404;7.232;2024-01-15T00:53:01;42.03;;;19.60;;
2972;SDS011;1496;51.404;7.232;2024-01-15T00:55:28;46.23;;;20.03;;
2972;SDS011;1496;51.404;7.232;2024-01-15T00:57:54;40.87;;;20.40;;
2972;SDS011;1496;51.404;7.232;2024-01-15T01:00:20;41.97;;;20.47;;
2972;SDS011;1496;51.404;7.232;2024-01-15T01:02:46;38.53;;;18.63;;
2972;SDS011;1496;51.404;7.232;2024-01-15T01:05:11;41.43;;;20.10;;
2972;SDS011;1496;51.404;7.232;2024-01-15T01:07:37;48.50;;;19.90;;
2972;SDS011;1496;51.404;7.232;2024-01-15T01:10:03;43.23;;;21.87;;
2972;SDS011;1496;51.404;7.232;2024-01-15T01:12:29;41.53;;;21.10;;
2972;SDS011;1496;51.404;7.232;2024-01-15T01:14:55;42.60;;;18.30;;
2972;SDS011;1496;51.404;7.232;2024-01-15T01:17:21;42.60;;;20.23;;
2972;SDS011;1496;51.404;7.232;2024-01-15T01:19:47;41.23;;;20.03;;
2972;SDS011;1496;51.404;7.232;2024-01-15T01:22:14;46.07;;;19.33;;
2972;SDS011;1496;51.404;7.232;2024-01-15T01:24:40;44.57;;;19.00;;
2972;SDS011;1496;51.404;7.232;2024-01-15T01:27:06;42.83;;;19.97;;
2972;SDS011;1496;51.404;7.232;2024-01-15T01:29:32;37.03;;;19.17;;
2972;SDS011;1496;51.404;7.232;2024-01-15T01:31:57;41.93;;;18.43;;
2972;SDS011;1496;51.404;7.232;2024-01-15T01:34:23;37.40;;;19.60;;
2972;SDS011;1496;51.404;7.232;2024-01-15T01:36:49;38.00;;;19.13;;
2972;SDS011;1496;51.404;7.232;2024-01-15T01:39:15;39.43;;;19.13;;
2972;SDS011;1496;51.404;7.232;2024-01-15T01:41:40;38.30;;;20.27;;
2972;SDS011;1496;51.404;7.232;2024-01-15T01:44:06;39.87;;;20.00;;
2972;SDS011;1496;51.404;7.232;2024-01-15T01:46:32;47.77;;;20.50;;
2972;SDS011;1496;51.404;7.232;2024-01-15T01:49:04;41.17;;;19.20;;
2972;SDS011;1496;51.404;7.232;2024-01-15T01:51:31;33.83;;;17.83;;
2972;SDS011;1496;51.404;7.232;2024-01-15T01:53:58;36.30;;;19.07;;
2972;SDS011;1496;51.404;7.232;2024-01-15T01:56:25;34.50;;;18.93;;
2972;SDS011;1496;51.404;7.232;2024-01-15T01:58:51;47.63;;;20.40;;
2972;SDS011;1496;51.404;7.232;2024-01-15T02:01:17;42.20;;;19.10;;
2972;SDS011;1496;51.404;7.232;2024-01-15T02:03:44;38.90;;;20.97;;
2972;SDS011;1496;51.404;7.232;2024-01-15T02:06:10;37.83;;;18.83;;
2972;SDS011;1496;51.404;7.232;2024-01-15T02:08:36;39.10;;;19.03;;
2972;SDS011;1496;51.404;7.232;2024-01-15T02:11:02;38.33;;;19.23;;
2972;SDS011;1496;51.404;7.232;2024-01-15T02:13:28;35.07;;;16.73;;
2972;SDS011;1496;51.404;7.232;2024-01-15T02:15:53;37.93;;;20.27;;
2972;SDS011;1496;51.404;7.232;2024-01-15T02:18:19;40.60;;;18.33;;
2972;SDS011;1496;51.404;7.232;2024-01-15T02:20:45;38.07;;;18.17;;
2972;SDS011;1496;51.404;7.232;2024-01-15T02:23:12;38.47;;;17.37;;
2972;SDS011;1496;51.404;7.232;2024-01-15T02:25:39;37.90;;;18.67;;
2972;SDS011;1496;51.404;7.232;2024-01-15T02:28:07;43.47;;;17.57;;
2972;SDS011;1496;51.404;7.232;2024-01-15T02:30:39;38.60;;;19.07;;
2972;SDS011;1496;51.404;7.232;2024-01-15T02:33:06;34.57;;;17.43;;
2972;SDS011;1496;51.404;7.232;2024-01-15T02:35:32;48.57;;;19.00;;
2972;SDS011;1496;51.404;7.232;2024-01-15T02:37:58;32.20;;;19.47;;
2972;SDS011;1496;51.404;7.232;2024-01-15T02:40:25;43.77;;;21.43;;
2972;SDS011;1496;51.404;7.232;2024-01-15T02:42:50;43.37;;;20.70;;
2972;SDS011;1496;51.404;7.232;2024-01-15T02:45:16;43.40;;;19.00;;
2972;SDS011;1496;51.404;7.232;2024-01-15T02:47:42;46.70;;;21.57;;
2972;SDS011;1496;51.404;7.232;2024-01-15T02:50:08;32.93;;;17.57;;
2972;SDS011;1496;51.404;7.232;2024-01-15T02:52:34;42.07;;;19.00;;
2972;SDS011;1496;51.404;7.232;2024-01-15T02:54:59;35.60;;;18.67;;
2972;SDS011;1496;51.404;7.232;2024-01-15T02:57:25;40.00;;;20.27;;
2972;SDS011;1496;51.404;7.232;2024-01-15T02:59:51;34.27;;;17.83;;
2972;SDS011;1496;51.404;7.232;2024-01-15T03:02:16;43.20;;;20.13;;
2972;SDS011;1496;51.404;7.232;2024-01-15T03:04:45;34.27;;;17.83;;
2972;SDS011;1496;51.404;7.232;2024-01-15T03:07:11;36.10;;;18.80;;
2972;SDS011;1496;51.404;7.232;2024-01-15T03:09:37;32.77;;;17.73;;
2972;SDS011;1496;51.404;7.232;2024-01-15T03:12:03;34.23;;;17.80;;
2972;SDS011;1496;51.404;7.232;2024-01-15T03:14:29;38.43;;;16.70;;
2972;SDS011;1496;51.404;7.232;2024-01-15T03:16:54;32.33;;;18.30;;
2972;SDS011;1496;51.404;7.232;2024-01-15T03:19:20;28.40;;;15.47;;
2972;SDS011;1496;51.404;7.232;2024-01-15T03:21:46;38.03;;;20.27;;
2972;SDS011;1496;51.404;7.232;2024-01-15T03:24:12;31.37;;;14.90;;
2972;SDS011;1496;51.404;7.232;2024-01-15T03:26:38;34.97;;;16.70;;
2972;SDS011;1496;51.404;7.232;2024-01-15T03:29:04;38.47;;;16.47;;
2972;SDS011;1496;51.404;7.232;2024-01-15T03:31:30;38.90;;;18.50;;
2972;SDS011;1496;51.404;7.232;2024-01-15T03:33:55;30.73;;;17.53;;
2972;SDS011;1496;51.404;7.232;2024-01-15T03:36:21;29.73;;;16.53;;
2972;SDS011;1496;51.404;7.232;2024-01-15T03:38:47;31.43;;;15.33;;
2972;SDS011;1496;51.404;7.232;2024-01-15T03:41:13;26.07;;;15.77;;
2972;SDS011;1496;51.404;7.232;2024-01-15T03:43:39;31.33;;;16.73;;
2972;SDS011;1496;51.404;7.232;2024-01-15T03:46:05;31.93;;;15.67;;
2972;SDS011;1496;51.404;7.232;2024-01-15T03:48:31;31.03;;;14.97;;
2972;SDS011;1496;51.404;7.232;2024-01-15T03:50:56;23.00;;;13.50;;
2972;SDS011;1496;51.404;7.232;2024-01-15T03:53:22;31.10;;;14.43;;
2972;SDS011;1496;51.404;7.232;2024-01-15T03:55:48;26.17;;;13.33;;
2972;SDS011;1496;51.404;7.232;2024-01-15T03:58:14;34.30;;;13.00;;
2972;SDS011;1496;51.404;7.232;2024-01-15T04:00:40;23.00;;;12.43;;
2972;SDS011;1496;51.404;7.232;2024-01-15T04:03:06;31.87;;;13.80;;
2972;SDS011;1496;51.404;7.232;2024-01-15T04:05:32;26.27;;;13.17;;
2972;SDS011;1496;51.404;7.232;2024-01-15T04:07:58;22.67;;;11.90;;
2972;SDS011;1496;51.404;7.232;2024-01-15T04:10:23;21.87;;;12.40;;
2972;SDS011;1496;51.404;7.232;2024-01-15T04:12:49;23.57;;;12.27;;
2972;SDS011;1496;51.404;7.232;2024-01-15T04:15:15;19.77;;;11.57;;
2972;SDS011;1496;51.404;7.232;2024-01-15T04:17:41;21.00;;;11.50;;
2972;SDS011;1496;51.404;7.232;2024-01-15T04:20:07;22.60;;;11.33;;
2972;SDS011;1496;51.404;7.232;2024-01-15T04:22:33;23.07;;;12.80;;
2972;SDS011;1496;51.404;7.232;2024-01-15T04:25:00;22.77;;;11.70;;
2972;SDS011;1496;51.404;7.232;2024-01-15T04:27:26;23.53;;;11.90;;
2972;SDS011;1496;51.404;7.232;2024-01-15T04:29:52;27.57;;;12.77;;
2972;SDS011;1496;51.404;7.232;2024-01-15T04:32:18;19.60;;;12.57;;
2972;SDS011;1496;51.404;7.232;2024-01-15T04:34:44;20.60;;;10.87;;
2972;SDS011;1496;51.404;7.232;2024-01-15T04:37:10;22.53;;;12.17;;
2972;SDS011;1496;51.404;7.232;2024-01-15T04:39:35;20.40;;;11.23;;
2972;SDS011;1496;51.404;7.232;2024-01-15T04:42:01;25.67;;;12.50;;
2972;SDS011;1496;51.404;7.232;2024-01-15T04:44:28;26.07;;;13.50;;
2972;SDS011;1496;51.404;7.232;2024-01-15T04:46:53;22.00;;;12.90;;
2972;SDS011;1496;51.404;7.232;2024-01-15T04:49:19;28.93;;;12.60;;
2972;SDS011;1496;51.404;7.232;2024-01-15T04:51:45;20.60;;;12.00;;
2972;SDS011;1496;51.404;7.232;2024-01-15T04:54:10;34.67;;;12.43;;
2972;SDS011;1496;51.404;7.232;2024-01-15T04:56:36;31.57;;;13.37;;
2972;SDS011;1496;51.404;7.232;2024-01-15T04:59:02;30.53;;;11.20;;
2972;SDS011;1496;51.404;7.232;2024-01-15T05:01:31;28.17;;;12.80;;
2972;SDS011;1496;51.404;7.232;2024-01-15T05:03:58;25.70;;;12.20;;
2972;SDS011;1496;51.404;7.232;2024-01-15T05:06:24;26.83;;;12.00;;
2972;SDS011;1496;51.404;7.232;2024-01-15T05:08:49;43.90;;;11.67;;
2972;SDS011;1496;51.404;7.232;2024-01-15T05:11:15;23.80;;;12.80;;
2972;SDS011;1496;51.404;7.232;2024-01-15T05:13:41;21.73;;;10.23;;
2972;SDS011;1496;51.404;7.232;2024-01-15T05:16:07;24.00;;;12.43;;
2972;SDS011;1496;51.404;7.232;2024-01-15T05:18:32;22.47;;;11.23;;
2972;SDS011;1496;51.404;7.232;2024-01-15T05:20:58;22.73;;;11.47;;
2972;SDS011;1496;51.404;7.232;2024-01-15T05:23:24;28.37;;;13.13;;
2972;SDS011;1496;51.404;7.232;2024-01-15T05:25:49;25.33;;;12.73;;
2972;SDS011;1496;51.404;7.232;2024-01-15T05:28:15;24.90;;;13.53;;
2972;SDS011;1496;51.404;7.232;2024-01-15T05:30:41;27.40;;;13.50;;
2972;SDS011;1496;51.404;7.232;2024-01-15T05:33:07;19.83;;;11.80;;
2972;SDS011;1496;51.404;7.232;2024-01-15T05:35:34;25.20;;;12.10;;
2972;SDS011;1496;51.404;7.232;2024-01-15T05:37:59;25.50;;;11.90;;
2972;SDS011;1496;51.404;7.232;2024-01-15T05:40:25;20.73;;;11.50;;
2972;SDS011;1496;51.404;7.232;2024-01-15T05:42:51;20.27;;;12.50;;
2972;SDS011;1496;51.404;7.232;2024-01-15T05:45:17;21.47;;;12.20;;
2972;SDS011;1496;51.404;7.232;2024-01-15T05:47:42;18.67;;;11.90;;
2972;SDS011;1496;51.404;7.232;2024-01-15T05:50:09;28.10;;;11.43;;
2972;SDS011;1496;51.404;7.232;2024-01-15T05:52:35;21.47;;;11.23;;
2972;SDS011;1496;51.404;7.232;2024-01-15T05:55:01;26.97;;;12.20;;
2972;SDS011;1496;51.404;7.232;2024-01-15T05:57:27;26.47;;;12.00;;
2972;SDS011;1496;51.404;7.232;2024-01-15T05:59:53;22.07;;;11.37;;
2972;SDS011;1496;51.404;7.232;2024-01-15T06:02:19;22.50;;;12.00;;
2972;SDS011;1496;51.404;7.232;2024-01-15T06:04:44;19.57;;;10.87;;
2972;SDS011;1496;51.404;7.232;2024-01-15T06:07:10;17.17;;;11.10;;
2972;SDS011;1496;51.404;7.232;2024-01-15T06:09:36;26.83;;;12.00;;
2972;SDS011;1496;51.404;7.232;2024-01-15T06:12:02;16.67;;;10.00;;
2972;SDS011;1496;51.404;7.232;2024-01-15T06:14:27;23.70;;;11.83;;
2972;SDS011;1496;51.404;7.232;2024-01-15T06:16:53;20.83;;;11.80;;
2972;SDS011;1496;51.404;7.232;2024-01-15T06:19:19;18.43;;;10.77;;
2972;SDS011;1496;51.404;7.232;2024-01-15T06:21:44;23.63;;;11.77;;
2972;SDS011;1496;51.404;7.232;2024-01-15T06:24:10;20.83;;;10.40;;
2972;SDS011;1496;51.404;7.232;2024-01-15T06:26:36;22.70;;;13.87;;
2972;SDS011;1496;51.404;7.232;2024-01-15T06:29:01;21.20;;;11.70;;
2972;SDS011;1496;51.404;7.232;2024-01-15T06:31:28;17.40;;;10.10;;
2972;SDS011;1496;51.404;7.232;2024-01-15T06:33:54;23.53;;;10.53;;
2972;SDS011;1496;51.404;7.232;2024-01-15T06:36:20;19.97;;;10.40;;
2972;SDS011;1496;51.404;7.232;2024-01-15T06:38:46;21.53;;;11.40;;
2972;SDS011;1496;51.404;7.232;2024-01-15T06:41:12;18.27;;;10.50;;
2972;SDS011;1496;51.404;7.232;2024-01-15T06:43:38;20.20;;;9.70;;
2972;SDS011;1496;51.404;7.232;2024-01-15T06:46:03;21.20;;;10.83;;
2972;SDS011;1496;51.404;7.232;2024-01-15T06:48:29;19.13;;;9.90;;
2972;SDS011;1496;51.404;7.232;2024-01-15T06:50:55;17.43;;;10.53;;
2972;SDS011;1496;51.404;7.232;2024-01-15T06:53:21;18.37;;;10.60;;
2972;SDS011;1496;51.404;7.232;2024-01-15T06:55:47;22.27;;;9.10;;
2972;SDS011;1496;51.404;7.232;2024-01-15T06:58:14;15.87;;;10.60;;
2972;SDS011;1496;51.404;7.232;2024-01-15T07:00:40;19.33;;;10.03;;
2972;SDS011;1496;51.404;7.232;2024-01-15T07:03:05;19.50;;;11.03;;
2972;SDS011;1496;51.404;7.232;2024-01-15T07:05:32;17.10;;;10.10;;
2972;SDS011;1496;51.404;7.232;2024-01-15T07:07:58;19.87;;;10.37;;
2972;SDS011;1496;51.404;7.232;2024-01-15T07:10:23;18.27;;;10.00;;
2972;SDS011;1496;51.404;7.232;2024-01-15T07:12:49;21.57;;;12.07;;
2972;SDS011;1496;51.404;7.232;2024-01-15T07:15:15;28.10;;;10.80;;
2972;SDS011;1496;51.404;7.232;2024-01-15T07:17:41;21.27;;;11.70;;
2972;SDS011;1496;51.404;7.232;2024-01-15T07:20:07;19.90;;;11.80;;
2972;SDS011;1496;51.404;7.232;2024-01-15T07:22:35;23.30;;;11.57;;
2972;SDS011;1496;51.404;7.232;2024-01-15T07:25:01;19.93;;;10.80;;
2972;SDS011;1496;51.404;7.232;2024-01-15T07:27:27;17.30;;;10.73;;
2972;SDS011;1496;51.404;7.232;2024-01-15T07:29:53;19.37;;;10.73;;
2972;SDS011;1496;51.404;7.232;2024-01-15T07:32:18;27.73;;;11.33;;
2972;SDS011;1496;51.404;7.232;2024-01-15T07:34:45;18.00;;;9.80;;
2972;SDS011;1496;51.404;7.232;2024-01-15T07:37:11;17.43;;;11.17;;
2972;SDS011;1496;51.404;7.232;2024-01-15T07:39:36;15.60;;;10.30;;
2972;SDS011;1496;51.404;7.232;2024-01-15T07:42:03;21.23;;;9.30;;
2972;SDS011;1496;51.404;7.232;2024-01-15T07:44:29;18.60;;;10.63;;
2972;SDS011;1496;51.404;7.232;2024-01-15T07:46:54;15.33;;;10.37;;
2972;SDS011;1496;51.404;7.232;2024-01-15T07:49:20;15.67;;;10.93;;
2972;SDS011;1496;51.404;7.232;2024-01-15T07:51:45;18.00;;;10.77;;
2972;SDS011;1496;51.404;7.232;2024-01-15T07:54:11;15.97;;;10.80;;
2972;SDS011;1496;51.404;7.232;2024-01-15T07:56:53;19.40;;;9.70;;
2972;SDS011;1496;51.404;7.232;2024-01-15T07:59:20;19.27;;;10.00;;
2972;SDS011;1496;51.404;7.232;2024-01-15T08:01:46;14.43;;;8.60;;
2972;SDS011;1496;51.404;7.232;2024-01-15T08:04:12;20.70;;;9.33;;
2972;SDS011;1496;51.404;7.232;2024-01-15T08:06:38;16.70;;;9.20;;
2972;SDS011;1496;51.404;7.232;2024-01-15T08:09:04;12.80;;;7.53;;
2972;SDS011;1496;51.404;7.232;2024-01-15T08:11:30;13.77;;;8.53;;
2972;SDS011;1496;51.404;7.232;2024-01-15T08:13:56;12.80;;;7.30;;
2972;SDS011;1496;51.404;7.232;2024-01-15T08:16:22;8.33;;;6.10;;
2972;SDS011;1496;51.404;7.232;2024-01-15T08:18:49;12.20;;;7.80;;
2972;SDS011;1496;51.404;7.232;2024-01-15T08:21:15;13.60;;;7.27;;
2972;SDS011;1496;51.404;7.232;2024-01-15T08:23:40;15.43;;;7.80;;
2972;SDS011;1496;51.404;7.232;2024-01-15T08:26:07;10.70;;;7.80;;
2972;SDS011;1496;51.404;7.232;2024-01-15T08:28:34;11.23;;;7.23;;
2972;SDS011;1496;51.404;7.232;2024-01-15T08:30:59;12.67;;;7.80;;
2972;SDS011;1496;51.404;7.232;2024-01-15T08:33:25;9.83;;;7.37;;
2972;SDS011;1496;51.404;7.232;2024-01-15T08:35:50;11.37;;;7.23;;
2972;SDS011;1496;51.404;7.232;2024-01-15T08:38:16;10.97;;;6.87;;
2972;SDS011;1496;51.404;7.232;2024-01-15T08:40:42;10.93;;;7.10;;
2972;SDS011;1496;51.404;7.232;2024-01-15T08:43:07;11.00;;;7.23;;
2972;SDS011;1496;51.404;7.232;2024-01-15T08:45:33;12.57;;;8.10;;
2972;SDS011;1496;51.404;7.232;2024-01-15T08:47:59;13.40;;;8.73;;
2972;SDS011;1496;51.404;7.232;2024-01-15T08:50:25;10.40;;;6.77;;
2972;SDS011;1496;51.404;7.232;2024-01-15T08:52:50;11.07;;;7.00;;
2972;SDS011;1496;51.404;7.232;2024-01-15T08:55:16;10.10;;;6.50;;
2972;SDS011;1496;51.404;7.232;2024-01-15T08:57:42;8.27;;;7.40;;
2972;SDS011;1496;51.404;7.232;2024-01-15T09:00:08;9.97;;;6.53;;
2972;SDS011;1496;51.404;7.232;2024-01-15T09:02:34;11.17;;;7.50;;
2972;SDS011;1496;51.404;7.232;2024-01-15T09:05:01;11.63;;;7.30;;
2972;SDS011;1496;51.404;7.232;2024-01-15T09:07:27;14.70;;;9.30;;
2972;SDS011;1496;51.404;7.232;2024-01-15T09:09:53;12.43;;;7.60;;
2972;SDS011;1496;51.404;7.232;2024-01-15T09:12:19;13.30;;;8.47;;
2972;SDS011;1496;51.404;7.232;2024-01-15T09:14:46;16.90;;;9.57;;
2972;SDS011;1496;51.404;7.232;2024-01-15T09:17:12;14.13;;;9.23;;
2972;SDS011;1496;51.404;7.232;2024-01-15T09:19:38;15.87;;;9.77;;
2972;SDS011;1496;51.404;7.232;2024-01-15T09:22:07;15.27;;;10.03;;
2972;SDS011;1496;51.404;7.232;2024-01-15T09:24:33;13.73;;;8.70;;
2972;SDS011;1496;51.404;7.232;2024-01-15T09:26:58;11.47;;;9.07;;
2972;SDS011;1496;51.404;7.232;2024-01-15T09:29:24;14.20;;;9.13;;
2972;SDS011;1496;51.404;7.232;2024-01-15T09:31:50;15.90;;;9.60;;
2972;SDS011;1496;51.404;7.232;2024-01-15T09:34:16;14.00;;;9.07;;
2972;SDS011;1496;51.404;7.232;2024-01-15T09:36:42;12.93;;;8.70;;
2972;SDS011;1496;51.404;7.232;2024-01-15T09:39:08;18.17;;;8.90;;
2972;SDS011;1496;51.404;7.232;2024-01-15T09:41:39;12.83;;;8.40;;
2972;SDS011;1496;51.404;7.232;2024-01-15T09:44:05;16.57;;;7.53;;
2972;SDS011;1496;51.404;7.232;2024-01-15T09:46:32;10.40;;;7.03;;
2972;SDS011;1496;51.404;7.232;2024-01-15T09:48:59;9.67;;;7.10;;
2972;SDS011;1496;51.404;7.232;2024-01-15T09:51:27;9.50;;;6.27;;
2972;SDS011;1496;51.404;7.232;2024-01-15T09:53:56;8.40;;;6.50;;
2972;SDS011;1496;51.404;7.232;2024-01-15T09:56:23;7.50;;;5.80;;
2972;SDS011;1496;51.404;7.232;2024-01-15T09:58:49;8.53;;;5.67;;
2972;SDS011;1496;51.404;7.232;2024-01-15T10:01:17;7.90;;;5.60;;
2972;SDS011;1496;51.404;7.232;2024-01-15T10:03:46;9.27;;;5.73;;
2972;SDS011;1496;51.404;7.232;2024-01-15T10:06:14;7.67;;;4.50;;
2972;SDS011;1496;51.404;7.232;2024-01-15T10:08:48;7.07;;;4.73;;
2972;SDS011;1496;51.404;7.232;2024-01-15T10:11:17;6.27;;;3.80;;
2972;SDS011;1496;51.404;7.232;2024-01-15T10:13:43;6.10;;;4.30;;
2972;SDS011;1496;51.404;7.232;2024-01-15T10:16:09;5.97;;;4.37;;
2972;SDS011;1496;51.404;7.232;2024-01-15T10:18:36;4.53;;;3.80;;
2972;SDS011;1496;51.404;7.232;2024-01-15T10:21:08;6.30;;;4.60;;
2972;SDS011;1496;51.404;7.232;2024-01-15T10:23:34;5.27;;;4.13;;
2972;SDS011;1496;51.404;7.232;2024-01-15T10:26:01;5.00;;;3.83;;
2972;SDS011;1496;51.404;7.232;2024-01-15T10:28:27;6.57;;;3.63;;
2972;SDS011;1496;51.404;7.232;2024-01-15T10:30:56;5.00;;;4.00;;
2972;SDS011;1496;51.404;7.232;2024-01-15T10:33:24;10.90;;;4.50;;
2972;SDS011;1496;51.404;7.232;2024-01-15T10:35:57;6.80;;;5.10;;
2972;SDS011;1496;51.404;7.232;2024-01-15T10:38:25;5.73;;;4.50;;
2972;SDS011;1496;51.404;7.232;2024-01-15T10:40:55;7.80;;;5.50;;
2972;SDS011;1496;51.404;7.232;2024-01-15T10:43:21;6.50;;;4.67;;
2972;SDS011;1496;51.404;7.232;2024-01-15T10:45:48;10.27;;;5.90;;
2972;SDS011;1496;51.404;7.232;2024-01-15T10:48:18;8.40;;;5.60;;
2972;SDS011;1496;51.404;7.232;2024-01-15T10:50:48;7.57;;;5.50;;
2972;SDS011;1496;51.404;7.232;2024-01-15T10:53:14;11.20;;;6.43;;
2972;SDS011;1496;51.404;7.232;2024-01-15T10:55:41;6.20;;;5.60;;
2972;SDS011;1496;51.404;7.232;2024-01-15T10:58:08;7.50;;;5.13;;
2972;SDS011;1496;51.404;7.232;2024-01-15T11:00:37;10.00;;;5.37;;
2972;SDS011;1496;51.404;7.232;2024-01-15T11:03:04;8.37;;;6.07;;
2972;SDS011;1496;51.404;7.232;2024-01-15T11:05:36;13.73;;;5.60;;
2972;SDS011;1496;51.404;7.232;2024-01-15T11:08:09;14.07;;;5.80;;
2972;SDS011;1496;51.404;7.232;2024-01-15T11:10:39;8.07;;;4.77;;
2972;SDS011;1496;51.404;7.232;2024-01-15T11:13:53;7.77;;;4.60;;
2972;SDS011;1496;51.404;7.232;2024-01-15T11:16:03;7.87;;;5.57;;
2972;SDS011;1496;51.404;7.232;2024-01-15T11:18:36;8.90;;;5.60;;
2972;SDS011;1496;51.404;7.232;2024-01-15T11:23:45;7.43;;;5.53;;
2972;SDS011;1496;51.404;7.232;2024-01-15T11:29:10;12.13;;;5.80;;
2972;SDS011;1496;51.404;7.232;2024-01-15T11:34:49;9.00;;;6.27;;
2972;SDS011;1496;51.404;7.232;2024-01-15T11:37:15;12.13;;;5.70;;
2972;SDS011;1496;51.404;7.232;2024-01-15T11:39:41;11.50;;;5.93;;
2972;SDS011;1496;51.404;7.232;2024-01-15T11:42:12;5.93;;;5.23;;
2972;SDS011;1496;51.404;7.232;2024-01-15T11:44:38;9.70;;;5.60;;
2972;SDS011;1496;51.404;7.232;2024-01-15T11:47:05;7.37;;;5.27;;
2972;SDS011;1496;51.404;7.232;2024-01-15T11:52:00;8.00;;;5.93;;
2972;SDS011;1496;51.404;7.232;2024-01-15T11:54:29;13.13;;;6.60;;
2972;SDS011;1496;51.404;7.232;2024-01-15T11:57:01;11.07;;;7.40;;
2972;SDS011;1496;51.404;7.232;2024-01-15T11:59:34;18.93;;;9.10;;
2972;SDS011;1496;51.404;7.232;2024-01-15T12:02:00;10.90;;;8.20;;
2972;SDS011;1496;51.404;7.232;2024-01-15T12:04:27;12.63;;;8.60;;
2972;SDS011;1496;51.404;7.232;2024-01-15T12:06:52;13.53;;;8.27;;
2972;SDS011;1496;51.404;7.232;2024-01-15T12:09:20;13.80;;;7.67;;
2972;SDS011;1496;51.404;7.232;2024-01-15T12:11:48;15.20;;;8.47;;
2972;SDS011;1496;51.404;7.232;2024-01-15T12:14:20;11.83;;;7.93;;
2972;SDS011;1496;51.404;7.232;2024-01-15T12:16:47;11.30;;;7.70;;
2972;SDS011;1496;51.404;7.232;2024-01-15T12:19:13;12.03;;;8.13;;
2972;SDS011;1496;51.404;7.232;2024-01-15T12:21:40;12.67;;;8.80;;
2972;SDS011;1496;51.404;7.232;2024-01-15T12:24:09;13.77;;;8.57;;
2972;SDS011;1496;51.404;7.232;2024-01-15T12:26:34;14.10;;;7.97;;
2972;SDS011;1496;51.404;7.232;2024-01-15T12:29:01;14.23;;;7.60;;
2972;SDS011;1496;51.404;7.232;2024-01-15T12:31:27;12.20;;;8.17;;
2972;SDS011;1496;51.404;7.232;2024-01-15T12:33:55;10.97;;;7.47;;
2972;SDS011;1496;51.404;7.232;2024-01-15T12:36:21;11.10;;;7.50;;
2972;SDS011;1496;51.404;7.232;2024-01-15T12:38:47;13.47;;;7.73;;
2972;SDS011;1496;51.404;7.232;2024-01-15T12:41:12;9.10;;;7.10;;
2972;SDS011;1496;51.404;7.232;2024-01-15T12:43:38;9.00;;;6.50;;
2972;SDS011;1496;51.404;7.232;2024-01-15T12:46:05;10.00;;;6.97;;
2972;SDS011;1496;51.404;7.232;2024-01-15T12:48:31;11.13;;;6.60;;
2972;SDS011;1496;51.404;7.232;2024-01-15T12:50:56;11.03;;;6.97;;
2972;SDS011;1496;51.404;7.232;2024-01-15T12:53:22;13.73;;;5.67;;
2972;SDS011;1496;51.404;7.232;2024-01-15T12:55:48;8.70;;;5.63;;
2972;SDS011;1496;51.404;7.232;2024-01-15T12:58:13;7.33;;;5.40;;
2972;SDS011;1496;51.404;7.232;2024-01-15T13:00:39;10.17;;;6.37;;
2972;SDS011;1496;51.404;7.232;2024-01-15T13:03:05;12.00;;;5.23;;
2972;SDS011;1496;51.404;7.232;2024-01-15T13:05:32;5.73;;;4.63;;
2972;SDS011;1496;51.404;7.232;2024-01-15T13:08:01;7.90;;;5.80;;
2972;SDS011;1496;51.404;7.232;2024-01-15T13:10:28;11.60;;;5.10;;
2972;SDS011;1496;51.404;7.232;2024-01-15T13:12:55;8.40;;;5.43;;
2972;SDS011;1496;51.404;7.232;2024-01-15T13:15:21;10.37;;;5.30;;
2972;SDS011;1496;51.404;7.232;2024-01-15T13:17:46;7.97;;;5.10;;
2972;SDS011;1496;51.404;7.232;2024-01-15T13:20:12;10.17;;;5.17;;
2972;SDS011;1496;51.404;7.232;2024-01-15T13:22:38;10.10;;;6.13;;
2972;SDS011;1496;51.404;7.232;2024-01-15T13:25:04;12.30;;;5.80;;
2972;SDS011;1496;51.404;7.232;2024-01-15T13:27:32;10.37;;;6.10;;
2972;SDS011;1496;51.404;7.232;2024-01-15T13:30:00;11.20;;;7.43;;
2972;SDS011;1496;51.404;7.232;2024-01-15T13:32:26;8.50;;;5.80;;
2972;SDS011;1496;51.404;7.232;2024-01-15T13:34:54;6.73;;;5.87;;
2972;SDS011;1496;51.404;7.232;2024-01-15T13:37:20;9.53;;;5.13;;
2972;SDS011;1496;51.404;7.232;2024-01-15T13:39:46;10.90;;;5.90;;
2972;SDS011;1496;51.404;7.232;2024-01-15T13:42:12;8.20;;;5.33;;
2972;SDS011;1496;51.404;7.232;2024-01-15T13:44:37;17.03;;;5.20;;
2972;SDS011;1496;51.404;7.232;2024-01-15T13:47:09;9.17;;;4.47;;
2972;SDS011;1496;51.404;7.232;2024-01-15T13:49:35;12.60;;;4.20;;
2972;SDS011;1496;51.404;7.232;2024-01-15T13:52:02;7.60;;;4.90;;
2972;SDS011;1496;51.404;7.232;2024-01-15T13:54:31;4.83;;;3.93;;
2972;SDS011;1496;51.404;7.232;2024-01-15T13:56:57;6.63;;;3.73;;
2972;SDS011;1496;51.404;7.232;2024-01-15T13:59:24;9.70;;;5.70;;
2972;SDS011;1496;51.404;7.232;2024-01-15T14:01:50;6.17;;;3.80;;
2972;SDS011;1496;51.404;7.232;2024-01-15T14:04:15;5.83;;;3.60;;
2972;SDS011;1496;51.404;7.232;2024-01-15T14:06:41;4.90;;;3.33;;
2972;SDS011;1496;51.404;7.232;2024-01-15T14:09:06;8.20;;;3.70;;
2972;SDS011;1496;51.404;7.232;2024-01-15T14:11:35;5.73;;;4.03;;
2972;SDS011;1496;51.404;7.232;2024-01-15T14:14:02;8.23;;;4.60;;
2972;SDS011;1496;51.404;7.232;2024-01-15T14:16:28;7.33;;;4.73;;
2972;SDS011;1496;51.404;7.232;2024-01-15T14:18:53;6.40;;;5.73;;
2972;SDS011;1496;51.404;7.232;2024-01-15T14:21:19;7.77;;;4.90;;
2972;SDS011;1496;51.404;7.232;2024-01-15T14:23:45;7.60;;;6.40;;
2972;SDS011;1496;51.404;7.232;2024-01-15T14:26:10;6.50;;;5.10;;
2972;SDS011;1496;51.404;7.232;2024-01-15T14:28:36;6.87;;;5.10;;
2972;SDS011;1496;51.404;7.232;2024-01-15T14:31:03;6.53;;;4.57;;
2972;SDS011;1496;51.404;7.232;2024-01-15T14:33:30;7.03;;;4.43;;
2972;SDS011;1496;51.404;7.232;2024-01-15T14:35:56;6.07;;;4.67;;
2972;SDS011;1496;51.404;7.232;2024-01-15T14:38:22;7.27;;;4.37;;
2972;SDS011;1496;51.404;7.232;2024-01-15T14:40:48;5.57;;;4.10;;
2972;SDS011;1496;51.404;7.232;2024-01-15T14:43:14;6.33;;;4.13;;
2972;SDS011;1496;51.404;7.232;2024-01-15T14:45:40;6.47;;;4.03;;
2972;SDS011;1496;51.404;7.232;2024-01-15T14:48:06;10.07;;;4.47;;
2972;SDS011;1496;51.404;7.232;2024-01-15T14:50:32;6.50;;;4.77;;
2972;SDS011;1496;51.404;7.232;2024-01-15T14:52:57;8.77;;;4.70;;
2972;SDS011;1496;51.404;7.232;2024-01-15T14:55:23;5.17;;;4.30;;
2972;SDS011;1496;51.404;7.232;2024-01-15T14:57:49;8.63;;;5.17;;
2972;SDS011;1496;51.404;7.232;2024-01-15T15:00:15;5.93;;;4.30;;
2972;SDS011;1496;51.404;7.232;2024-01-15T15:02:42;4.77;;;3.97;;
2972;SDS011;1496;51.404;7.232;2024-01-15T15:05:08;4.73;;;3.73;;